KPSP

Palm Springs International Airport

Palm Springs, California, USA
METAR KPSP 162253Z 16005KT 7SM OVC023 16/11 A3019 RMK AO2 SLP223 T01610111
Observed Flight Rules
Jan-16 @ 22:53 UTC (27 minutes ago) Marginal Visual Flight Rules
Wind Visibility Clouds
160° at 5 knots 7 miles
  • Overcast at 2,300' AGL
Temperatures Readings
Current 16°C / 61°F
Dewpoint 11°C / 52°F
Humidity 72%
Altimeter 30.19" Hg
Pressure 1022.3 hPa
Elevation 135
METAR KPSP 162253Z 16005KT 7SM OVC023 16/11 A3019 RMK AO2 SLP223 T01610111
Observed Flight Rules
Jan-16 @ 22:53 UTC
(27 minutes ago)
MVFR
Wind Visibility
160° at 5 knots 7 miles
Clouds
  • Overcast at 2,300' AGL
Temperature Dewpoint
16°C / 61°F 11°C / 52°F
Humidity Altimeter Pressure
72% 30.19" Hg 1022.3 hPa